• Join FlightAware (Why Join?)
  • Login
  • US Flag 
09:11AM EDT


 

Airport Tracker/Info


-or-


 

Live Flight TrackerFlight Track Log ✈ SKW5457 ✈ 24-Apr-2013 ✈ KCIC - KSFO

Flight Track Log - Related Links

Times and Time Zones

All times are in EDT time to prevent confusion due to time zone crossing. See the SKW5457 flight status page for this flight to view local times or setup timezone preferences in your user account.

Time Position Orientation Groundspeed Altitude Reporting Facility
EDT Latitude Longitude Course Direction KTS MPH feet Rate Location/Type
09:03AM 39.7428 -121.8422 197° South 178 205 2,400  Level Oakland Center
09:04AM 39.7072 -121.8797 219° Southwest 201 231 4,300 1,620 Climbing Oakland Center
09:05AM 39.6539 -121.9133 206° Southwest 212 244 5,700 1,680 Climbing Oakland Center
09:06AM 39.6435 -122.0838 198° South  Level FlightAware Approximate
09:06AM 39.6006 -121.9475 206° Southwest 214 246 7,700  Level Oakland Center
09:07AM 39.5624 -122.1177 191° South  Level FlightAware Approximate
09:07AM 39.5461 -121.9828 207° Southwest 218 251 9,600  Level Oakland Center
09:08AM 39.4794 -122.1416 197° South  Level FlightAware Approximate
09:08AM 39.4919 -122.0158 205° Southwest 216 249 11,300  Level Oakland Center
09:09AM 39.4150 -122.1674 197° South  Level FlightAware Approximate
09:09AM 39.4300 -122.0528 205° Southwest 223 257 13,000  Level Oakland Center
09:10AM 39.3711 -122.0903 206° Southwest 231 266 14,400 1,380 Climbing Oakland Center
09:11AM 39.3111 -122.1281 206° Southwest 237 273 15,800 1,260 Climbing Oakland Center
09:12AM 39.2519 -122.1633 205° Southwest 236 272 17,000 600 Climbing Oakland Center
09:13AM 39.1875 -122.2025 205° Southwest 248 285 17,100  Climbing Oakland Center
09:14AM 39.1178 -122.2483 207° Southwest 271 312 17,000  Descending Oakland Center
09:15AM 39.0408 -122.2922 204° Southwest 296 341 17,100  Climbing Oakland Center
09:16AM 38.9672 -122.3367 205° Southwest 295 339 17,100 -60 Level Oakland Center
09:18AM 38.8942 -122.3814 205° Southwest 293 337 17,000 -60 Descending Oakland Center
09:19AM 38.8214 -122.4261 206° Southwest 291 335 17,000  Level Oakland Center
09:20AM 38.7478 -122.4703 205° Southwest 292 336 17,100  Climbing Oakland Center
09:21AM 38.6747 -122.5131 205° Southwest 290 334 17,000 -60 Descending Oakland Center
09:22AM 38.6036 -122.5569 206° Southwest 288 331 17,000  Level Oakland Center
09:23AM 38.5297 -122.6019 205° Southwest 293 337 17,000  Level Oakland Center
09:24AM 38.4394 -122.6400 198° South 294 338 17,000  Level Oakland Center
09:25AM 38.3575 -122.6439 182° South 295 339 17,000  Level Oakland Center
09:26AM 38.2761 -122.6511 184° South 295 339 17,000 -120 Level Oakland Center
09:27AM 38.1967 -122.6561 183° South 290 334 16,800 -960 Descending Oakland Center
09:28AM 38.1119 -122.6625 183° South 304 350 15,100 -1,920 Descending Oakland Center
09:29AM 38.0219 -122.6700 184° South 320 368 13,000 -1,980 Descending Oakland Center
09:30AM 37.9369 -122.6744 182° South 316 364 11,200 -1,080 Descending Oakland Center
09:31AM 37.8653 -122.6375 158° South 311 358 10,900 -120 Descending Oakland Center
09:31AM 37.8167 -122.5833 139° Southeast 273 314 11,000  Climbing Northern Cal TRACON
09:33AM 37.7500 -122.5167 142° Southeast 265 305 11,000  Level Northern Cal TRACON
09:33AM 37.7000 -122.4667 142° Southeast 264 304 11,000  Level Northern Cal TRACON
09:34AM 37.6333 -122.4000 142° Southeast 270 311 11,100 -240 Climbing Northern Cal TRACON
09:35AM 37.5833 -122.3500 142° Southeast 275 316 10,600 -1,200 Descending Northern Cal TRACON
09:36AM 37.5606 -122.3375 156° South 273 314 9,700 -2,400 Descending Oakland Center
09:37AM 37.4900 -122.2933 154° Southeast 283 326 7,200 -2,460 Descending Oakland Center
09:38AM 37.4486 -122.2231 127° Southeast 264 304 4,800 -1,680 Descending Oakland Center
09:39AM 37.4683 -122.1683 66° East 215 247 3,900 -780 Descending Oakland Center
09:40AM 37.5183 -122.1778 351° North 195 224 3,300 -900 Descending Oakland Center
09:41AM 37.5558 -122.2247 315° West 195 224 2,100 -960 Descending Oakland Center
09:42AM 37.5769 -122.2714 300° West 172 198 1,400 -720 Descending Oakland Center